sensor_id;sensor_type;location;lat;lon;timestamp;P1;durP1;ratioP1;P2;durP2;ratioP2
45940;SDS011;31858;46.008;8.978;2024-02-26T00:05:13;7.22;;;6.35;;
45940;SDS011;31858;46.008;8.978;2024-02-26T00:15:16;12.63;;;9.48;;
45940;SDS011;31858;46.008;8.978;2024-02-26T00:25:17;10.98;;;9.82;;
45940;SDS011;31858;46.008;8.978;2024-02-26T00:35:20;11.18;;;9.63;;
45940;SDS011;31858;46.008;8.978;2024-02-26T00:45:22;15.65;;;11.90;;
45940;SDS011;31858;46.008;8.978;2024-02-26T00:55:25;14.68;;;12.80;;
45940;SDS011;31858;46.008;8.978;2024-02-26T01:05:26;14.15;;;12.02;;
45940;SDS011;31858;46.008;8.978;2024-02-26T01:15:29;22.08;;;13.57;;
45940;SDS011;31858;46.008;8.978;2024-02-26T01:25:31;15.23;;;13.40;;
45940;SDS011;31858;46.008;8.978;2024-02-26T01:35:34;16.27;;;12.35;;
45940;SDS011;31858;46.008;8.978;2024-02-26T01:45:36;14.30;;;12.20;;
45940;SDS011;31858;46.008;8.978;2024-02-26T01:55:39;11.82;;;10.50;;
45940;SDS011;31858;46.008;8.978;2024-02-26T02:05:41;12.70;;;10.63;;
45940;SDS011;31858;46.008;8.978;2024-02-26T02:15:44;12.20;;;10.82;;
45940;SDS011;31858;46.008;8.978;2024-02-26T02:25:47;9.23;;;8.25;;
45940;SDS011;31858;46.008;8.978;2024-02-26T02:35:49;9.10;;;7.53;;
45940;SDS011;31858;46.008;8.978;2024-02-26T02:45:55;6.20;;;5.60;;
45940;SDS011;31858;46.008;8.978;2024-02-26T02:55:57;10.30;;;9.07;;
45940;SDS011;31858;46.008;8.978;2024-02-26T03:06:00;9.38;;;8.48;;
45940;SDS011;31858;46.008;8.978;2024-02-26T03:16:04;8.85;;;7.50;;
45940;SDS011;31858;46.008;8.978;2024-02-26T03:26:07;6.82;;;5.80;;
45940;SDS011;31858;46.008;8.978;2024-02-26T03:36:11;5.90;;;5.30;;
45940;SDS011;31858;46.008;8.978;2024-02-26T03:46:14;5.88;;;4.97;;
45940;SDS011;31858;46.008;8.978;2024-02-26T03:56:16;5.15;;;4.65;;
45940;SDS011;31858;46.008;8.978;2024-02-26T04:06:18;4.78;;;4.28;;
45940;SDS011;31858;46.008;8.978;2024-02-26T04:16:21;3.65;;;3.35;;
45940;SDS011;31858;46.008;8.978;2024-02-26T04:26:24;4.00;;;3.55;;
45940;SDS011;31858;46.008;8.978;2024-02-26T04:36:25;4.28;;;3.88;;
45940;SDS011;31858;46.008;8.978;2024-02-26T04:46:28;3.60;;;3.30;;
45940;SDS011;31858;46.008;8.978;2024-02-26T04:56:30;3.17;;;2.88;;
45940;SDS011;31858;46.008;8.978;2024-02-26T05:06:32;3.28;;;2.97;;
45940;SDS011;31858;46.008;8.978;2024-02-26T05:16:34;3.58;;;2.75;;
45940;SDS011;31858;46.008;8.978;2024-02-26T05:26:37;3.58;;;3.28;;
45940;SDS011;31858;46.008;8.978;2024-02-26T05:36:38;4.22;;;3.70;;
45940;SDS011;31858;46.008;8.978;2024-02-26T05:46:41;4.95;;;4.43;;
45940;SDS011;31858;46.008;8.978;2024-02-26T05:56:43;5.18;;;4.68;;
45940;SDS011;31858;46.008;8.978;2024-02-26T06:06:46;4.30;;;3.90;;
45940;SDS011;31858;46.008;8.978;2024-02-26T06:16:47;4.57;;;4.18;;
45940;SDS011;31858;46.008;8.978;2024-02-26T06:26:51;3.60;;;3.30;;
45940;SDS011;31858;46.008;8.978;2024-02-26T06:36:52;5.00;;;3.22;;
45940;SDS011;31858;46.008;8.978;2024-02-26T06:46:55;2.88;;;2.67;;
45940;SDS011;31858;46.008;8.978;2024-02-26T06:56:57;2.28;;;2.17;;
45940;SDS011;31858;46.008;8.978;2024-02-26T07:07:00;1.50;;;1.40;;
45940;SDS011;31858;46.008;8.978;2024-02-26T07:17:01;1.70;;;1.60;;
45940;SDS011;31858;46.008;8.978;2024-02-26T07:27:04;1.35;;;1.27;;
45940;SDS011;31858;46.008;8.978;2024-02-26T07:37:06;1.50;;;1.40;;
45940;SDS011;31858;46.008;8.978;2024-02-26T07:47:09;1.15;;;1.15;;
45940;SDS011;31858;46.008;8.978;2024-02-26T07:57:10;1.75;;;1.65;;
45940;SDS011;31858;46.008;8.978;2024-02-26T08:07:16;1.40;;;1.30;;
45940;SDS011;31858;46.008;8.978;2024-02-26T08:17:18;1.17;;;1.10;;
45940;SDS011;31858;46.008;8.978;2024-02-26T08:27:21;1.58;;;1.48;;
45940;SDS011;31858;46.008;8.978;2024-02-26T08:37:23;2.08;;;1.85;;
45940;SDS011;31858;46.008;8.978;2024-02-26T08:47:26;2.60;;;2.40;;
45940;SDS011;31858;46.008;8.978;2024-02-26T08:57:28;3.22;;;2.42;;
45940;SDS011;31858;46.008;8.978;2024-02-26T09:07:31;4.38;;;3.45;;
45940;SDS011;31858;46.008;8.978;2024-02-26T09:17:33;3.33;;;2.92;;
45940;SDS011;31858;46.008;8.978;2024-02-26T09:27:36;2.58;;;2.38;;
45940;SDS011;31858;46.008;8.978;2024-02-26T09:37:38;4.50;;;4.10;;
45940;SDS011;31858;46.008;8.978;2024-02-26T09:47:42;4.03;;;3.72;;
45940;SDS011;31858;46.008;8.978;2024-02-26T09:57:45;4.75;;;2.80;;
45940;SDS011;31858;46.008;8.978;2024-02-26T10:07:49;1.60;;;1.50;;
45940;SDS011;31858;46.008;8.978;2024-02-26T10:17:52;1.38;;;1.30;;
45940;SDS011;31858;46.008;8.978;2024-02-26T10:27:55;2.40;;;0.93;;
45940;SDS011;31858;46.008;8.978;2024-02-26T10:38:02;1.05;;;1.00;;
45940;SDS011;31858;46.008;8.978;2024-02-26T10:48:05;2.05;;;1.70;;
45940;SDS011;31858;46.008;8.978;2024-02-26T10:58:11;1.20;;;1.20;;
45940;SDS011;31858;46.008;8.978;2024-02-26T11:08:16;1.30;;;1.20;;
45940;SDS011;31858;46.008;8.978;2024-02-26T11:18:19;0.70;;;0.70;;
45940;SDS011;31858;46.008;8.978;2024-02-26T11:28:24;1.60;;;1.50;;
45940;SDS011;31858;46.008;8.978;2024-02-26T11:38:28;1.58;;;1.48;;
45940;SDS011;31858;46.008;8.978;2024-02-26T11:48:31;1.48;;;1.38;;
45940;SDS011;31858;46.008;8.978;2024-02-26T11:58:33;1.40;;;1.40;;
45940;SDS011;31858;46.008;8.978;2024-02-26T12:08:36;3.22;;;2.30;;
45940;SDS011;31858;46.008;8.978;2024-02-26T12:18:39;4.18;;;3.00;;
45940;SDS011;31858;46.008;8.978;2024-02-26T12:28:42;1.83;;;1.73;;
45940;SDS011;31858;46.008;8.978;2024-02-26T12:38:44;2.40;;;2.20;;
45940;SDS011;31858;46.008;8.978;2024-02-26T12:58:47;2.33;;;2.13;;
45940;SDS011;31858;46.008;8.978;2024-02-26T13:08:55;1.77;;;1.67;;
45940;SDS011;31858;46.008;8.978;2024-02-26T13:19:09;5.35;;;3.85;;
45940;SDS011;31858;46.008;8.978;2024-02-26T13:29:16;1.08;;;1.08;;
45940;SDS011;31858;46.008;8.978;2024-02-26T13:39:23;0.90;;;0.90;;
45940;SDS011;31858;46.008;8.978;2024-02-26T13:49:25;0.70;;;0.70;;
45940;SDS011;31858;46.008;8.978;2024-02-26T13:59:28;36.58;;;2.78;;
45940;SDS011;31858;46.008;8.978;2024-02-26T14:09:29;1.55;;;1.40;;
45940;SDS011;31858;46.008;8.978;2024-02-26T14:19:33;9.02;;;7.18;;
45940;SDS011;31858;46.008;8.978;2024-02-26T14:29:35;5.22;;;4.60;;
45940;SDS011;31858;46.008;8.978;2024-02-26T14:39:38;58.42;;;3.88;;
45940;SDS011;31858;46.008;8.978;2024-02-26T14:49:39;1.20;;;1.20;;
45940;SDS011;31858;46.008;8.978;2024-02-26T14:59:42;3.25;;;1.55;;
45940;SDS011;31858;46.008;8.978;2024-02-26T15:09:45;0.63;;;0.63;;
45940;SDS011;31858;46.008;8.978;2024-02-26T15:19:47;1.55;;;0.95;;
45940;SDS011;31858;46.008;8.978;2024-02-26T15:29:49;1.17;;;0.32;;
45940;SDS011;31858;46.008;8.978;2024-02-26T15:39:59;0.70;;;0.70;;
45940;SDS011;31858;46.008;8.978;2024-02-26T15:50:01;1.63;;;1.52;;
45940;SDS011;31858;46.008;8.978;2024-02-26T16:00:05;2.03;;;1.35;;
45940;SDS011;31858;46.008;8.978;2024-02-26T16:10:10;1.48;;;1.33;;
45940;SDS011;31858;46.008;8.978;2024-02-26T16:20:13;1.30;;;1.20;;
45940;SDS011;31858;46.008;8.978;2024-02-26T16:30:16;1.60;;;1.50;;
45940;SDS011;31858;46.008;8.978;2024-02-26T16:40:19;1.48;;;1.38;;
45940;SDS011;31858;46.008;8.978;2024-02-26T16:50:21;1.77;;;1.67;;
45940;SDS011;31858;46.008;8.978;2024-02-26T17:00:24;2.40;;;2.20;;
45940;SDS011;31858;46.008;8.978;2024-02-26T17:10:25;0.90;;;0.90;;
45940;SDS011;31858;46.008;8.978;2024-02-26T17:20:28;0.80;;;0.80;;
45940;SDS011;31858;46.008;8.978;2024-02-26T17:30:30;0.60;;;0.60;;
45940;SDS011;31858;46.008;8.978;2024-02-26T17:40:33;1.48;;;0.70;;
45940;SDS011;31858;46.008;8.978;2024-02-26T17:50:34;0.50;;;0.50;;
45940;SDS011;31858;46.008;8.978;2024-02-26T18:00:37;0.93;;;0.93;;
45940;SDS011;31858;46.008;8.978;2024-02-26T18:10:39;1.45;;;1.35;;
45940;SDS011;31858;46.008;8.978;2024-02-26T18:20:42;1.55;;;1.45;;
45940;SDS011;31858;46.008;8.978;2024-02-26T18:30:44;2.08;;;1.48;;
45940;SDS011;31858;46.008;8.978;2024-02-26T18:40:47;1.50;;;1.20;;
45940;SDS011;31858;46.008;8.978;2024-02-26T18:50:49;6.22;;;5.63;;
45940;SDS011;31858;46.008;8.978;2024-02-26T19:00:52;1.75;;;1.65;;
45940;SDS011;31858;46.008;8.978;2024-02-26T19:10:53;2.53;;;0.82;;
45940;SDS011;31858;46.008;8.978;2024-02-26T19:20:56;0.63;;;0.50;;
45940;SDS011;31858;46.008;8.978;2024-02-26T19:30:58;0.55;;;0.20;;
45940;SDS011;31858;46.008;8.978;2024-02-26T19:41:01;4.22;;;3.55;;
45940;SDS011;31858;46.008;8.978;2024-02-26T19:51:02;0.85;;;0.85;;
45940;SDS011;31858;46.008;8.978;2024-02-26T20:01:06;1.60;;;1.50;;
45940;SDS011;31858;46.008;8.978;2024-02-26T20:11:08;1.08;;;0.40;;
45940;SDS011;31858;46.008;8.978;2024-02-26T20:21:11;1.67;;;1.00;;
45940;SDS011;31858;46.008;8.978;2024-02-26T20:31:13;0.73;;;0.73;;
45940;SDS011;31858;46.008;8.978;2024-02-26T20:41:16;0.90;;;0.90;;
45940;SDS011;31858;46.008;8.978;2024-02-26T20:51:18;1.33;;;1.17;;
45940;SDS011;31858;46.008;8.978;2024-02-26T21:01:21;1.33;;;1.08;;
45940;SDS011;31858;46.008;8.978;2024-02-26T21:11:22;0.90;;;0.90;;
45940;SDS011;31858;46.008;8.978;2024-02-26T21:21:25;0.80;;;0.80;;
45940;SDS011;31858;46.008;8.978;2024-02-26T21:31:28;0.55;;;0.55;;
45940;SDS011;31858;46.008;8.978;2024-02-26T21:41:31;1.58;;;1.48;;
45940;SDS011;31858;46.008;8.978;2024-02-26T21:51:35;2.72;;;2.50;;
45940;SDS011;31858;46.008;8.978;2024-02-26T22:01:44;0.80;;;0.80;;
45940;SDS011;31858;46.008;8.978;2024-02-26T22:11:46;0.73;;;0.50;;
45940;SDS011;31858;46.008;8.978;2024-02-26T22:21:49;0.55;;;0.55;;
45940;SDS011;31858;46.008;8.978;2024-02-26T22:31:51;0.40;;;0.40;;
45940;SDS011;31858;46.008;8.978;2024-02-26T22:41:57;0.57;;;0.57;;
45940;SDS011;31858;46.008;8.978;2024-02-26T22:52:00;0.80;;;0.63;;
45940;SDS011;31858;46.008;8.978;2024-02-26T23:02:03;1.00;;;1.00;;
45940;SDS011;31858;46.008;8.978;2024-02-26T23:12:04;0.80;;;0.70;;
45940;SDS011;31858;46.008;8.978;2024-02-26T23:22:08;2.60;;;2.40;;
45940;SDS011;31858;46.008;8.978;2024-02-26T23:32:09;5.60;;;2.85;;
45940;SDS011;31858;46.008;8.978;2024-02-26T23:42:12;0.90;;;0.60;;
45940;SDS011;31858;46.008;8.978;2024-02-26T23:52:14;0.30;;;0.30;;
